sensor_id;sensor_type;location;lat;lon;timestamp;P1;durP1;ratioP1;P2;durP2;ratioP2
15110;SDS011;7656;51.954;7.998;2023-02-15T00:02:53;8.33;;;6.07;;
15110;SDS011;7656;51.954;7.998;2023-02-15T00:07:15;10.60;;;5.80;;
15110;SDS011;7656;51.954;7.998;2023-02-15T00:11:38;7.80;;;5.47;;
15110;SDS011;7656;51.954;7.998;2023-02-15T00:16:04;9.90;;;5.53;;
15110;SDS011;7656;51.954;7.998;2023-02-15T00:20:27;9.03;;;6.17;;
15110;SDS011;7656;51.954;7.998;2023-02-15T00:24:48;6.13;;;5.13;;
15110;SDS011;7656;51.954;7.998;2023-02-15T00:29:10;9.47;;;6.37;;
15110;SDS011;7656;51.954;7.998;2023-02-15T00:33:33;11.03;;;5.87;;
15110;SDS011;7656;51.954;7.998;2023-02-15T00:37:55;9.90;;;5.63;;
15110;SDS011;7656;51.954;7.998;2023-02-15T00:42:17;7.77;;;5.73;;
15110;SDS011;7656;51.954;7.998;2023-02-15T00:46:38;10.00;;;6.57;;
15110;SDS011;7656;51.954;7.998;2023-02-15T00:50:59;8.33;;;5.90;;
15110;SDS011;7656;51.954;7.998;2023-02-15T00:55:21;10.30;;;5.40;;
15110;SDS011;7656;51.954;7.998;2023-02-15T00:59:43;9.00;;;5.87;;
15110;SDS011;7656;51.954;7.998;2023-02-15T01:04:04;10.70;;;6.07;;
15110;SDS011;7656;51.954;7.998;2023-02-15T01:08:25;10.30;;;6.47;;
15110;SDS011;7656;51.954;7.998;2023-02-15T01:12:47;7.00;;;5.17;;
15110;SDS011;7656;51.954;7.998;2023-02-15T01:17:08;12.00;;;6.67;;
15110;SDS011;7656;51.954;7.998;2023-02-15T01:21:29;9.30;;;6.10;;
15110;SDS011;7656;51.954;7.998;2023-02-15T01:25:50;8.20;;;6.10;;
15110;SDS011;7656;51.954;7.998;2023-02-15T01:30:12;6.70;;;5.17;;
15110;SDS011;7656;51.954;7.998;2023-02-15T01:34:34;9.70;;;5.63;;
15110;SDS011;7656;51.954;7.998;2023-02-15T01:38:55;12.13;;;5.57;;
15110;SDS011;7656;51.954;7.998;2023-02-15T01:43:16;9.87;;;6.13;;
15110;SDS011;7656;51.954;7.998;2023-02-15T01:47:46;9.07;;;5.87;;
15110;SDS011;7656;51.954;7.998;2023-02-15T01:52:16;9.03;;;5.83;;
15110;SDS011;7656;51.954;7.998;2023-02-15T01:56:38;8.50;;;6.00;;
15110;SDS011;7656;51.954;7.998;2023-02-15T02:01:01;8.57;;;5.57;;
15110;SDS011;7656;51.954;7.998;2023-02-15T02:05:24;7.23;;;5.57;;
15110;SDS011;7656;51.954;7.998;2023-02-15T02:09:46;8.50;;;5.40;;
15110;SDS011;7656;51.954;7.998;2023-02-15T02:14:08;7.93;;;5.53;;
15110;SDS011;7656;51.954;7.998;2023-02-15T02:27:48;8.37;;;5.63;;
15110;SDS011;7656;51.954;7.998;2023-02-15T02:32:30;8.77;;;6.00;;
15110;SDS011;7656;51.954;7.998;2023-02-15T02:47:03;9.37;;;6.07;;
15110;SDS011;7656;51.954;7.998;2023-02-15T02:51:37;8.93;;;6.30;;
15110;SDS011;7656;51.954;7.998;2023-02-15T02:55:59;10.63;;;6.27;;
15110;SDS011;7656;51.954;7.998;2023-02-15T03:00:31;9.27;;;6.70;;
15110;SDS011;7656;51.954;7.998;2023-02-15T03:04:58;10.87;;;6.83;;
15110;SDS011;7656;51.954;7.998;2023-02-15T03:09:25;11.10;;;7.27;;
15110;SDS011;7656;51.954;7.998;2023-02-15T03:13:55;11.37;;;6.83;;
15110;SDS011;7656;51.954;7.998;2023-02-15T03:18:17;10.30;;;6.53;;
15110;SDS011;7656;51.954;7.998;2023-02-15T03:22:54;10.50;;;6.47;;
15110;SDS011;7656;51.954;7.998;2023-02-15T03:27:22;9.90;;;6.73;;
15110;SDS011;7656;51.954;7.998;2023-02-15T03:31:49;11.60;;;6.60;;
15110;SDS011;7656;51.954;7.998;2023-02-15T03:40:45;10.17;;;6.67;;
15110;SDS011;7656;51.954;7.998;2023-02-15T03:45:27;12.37;;;6.03;;
15110;SDS011;7656;51.954;7.998;2023-02-15T03:50:00;11.13;;;6.60;;
15110;SDS011;7656;51.954;7.998;2023-02-15T03:54:49;9.07;;;5.60;;
15110;SDS011;7656;51.954;7.998;2023-02-15T03:59:10;11.03;;;6.90;;
15110;SDS011;7656;51.954;7.998;2023-02-15T04:03:57;8.00;;;5.67;;
15110;SDS011;7656;51.954;7.998;2023-02-15T04:08:24;9.60;;;6.40;;
15110;SDS011;7656;51.954;7.998;2023-02-15T04:13:05;10.30;;;5.87;;
15110;SDS011;7656;51.954;7.998;2023-02-15T04:17:26;8.33;;;6.07;;
15110;SDS011;7656;51.954;7.998;2023-02-15T04:21:47;12.87;;;7.37;;
15110;SDS011;7656;51.954;7.998;2023-02-15T04:26:27;11.07;;;6.53;;
15110;SDS011;7656;51.954;7.998;2023-02-15T04:30:48;11.87;;;6.80;;
15110;SDS011;7656;51.954;7.998;2023-02-15T04:35:09;10.03;;;6.00;;
15110;SDS011;7656;51.954;7.998;2023-02-15T04:39:31;9.67;;;6.00;;
15110;SDS011;7656;51.954;7.998;2023-02-15T04:43:52;9.03;;;6.77;;
15110;SDS011;7656;51.954;7.998;2023-02-15T04:48:13;9.97;;;6.40;;
15110;SDS011;7656;51.954;7.998;2023-02-15T04:52:34;9.50;;;6.33;;
15110;SDS011;7656;51.954;7.998;2023-02-15T04:56:55;10.40;;;6.47;;
15110;SDS011;7656;51.954;7.998;2023-02-15T05:01:17;11.47;;;6.77;;
15110;SDS011;7656;51.954;7.998;2023-02-15T05:05:38;15.77;;;8.50;;
15110;SDS011;7656;51.954;7.998;2023-02-15T05:09:59;13.33;;;8.33;;
15110;SDS011;7656;51.954;7.998;2023-02-15T05:14:20;16.10;;;10.07;;
15110;SDS011;7656;51.954;7.998;2023-02-15T05:18:41;20.20;;;10.07;;
15110;SDS011;7656;51.954;7.998;2023-02-15T05:23:02;11.73;;;6.87;;
15110;SDS011;7656;51.954;7.998;2023-02-15T05:27:23;13.40;;;6.43;;
15110;SDS011;7656;51.954;7.998;2023-02-15T05:32:02;10.17;;;5.90;;
15110;SDS011;7656;51.954;7.998;2023-02-15T05:36:24;10.97;;;7.47;;
15110;SDS011;7656;51.954;7.998;2023-02-15T05:40:45;11.93;;;7.00;;
15110;SDS011;7656;51.954;7.998;2023-02-15T05:45:06;10.13;;;6.50;;
15110;SDS011;7656;51.954;7.998;2023-02-15T05:49:28;9.53;;;6.37;;
15110;SDS011;7656;51.954;7.998;2023-02-15T05:53:49;8.80;;;5.97;;
15110;SDS011;7656;51.954;7.998;2023-02-15T05:58:10;12.37;;;6.57;;
15110;SDS011;7656;51.954;7.998;2023-02-15T06:02:34;8.37;;;6.03;;
15110;SDS011;7656;51.954;7.998;2023-02-15T06:06:57;11.93;;;6.70;;
15110;SDS011;7656;51.954;7.998;2023-02-15T06:11:18;10.23;;;6.17;;
15110;SDS011;7656;51.954;7.998;2023-02-15T06:15:39;11.73;;;6.77;;
15110;SDS011;7656;51.954;7.998;2023-02-15T06:20:00;10.60;;;6.63;;
15110;SDS011;7656;51.954;7.998;2023-02-15T06:24:21;9.80;;;6.27;;
15110;SDS011;7656;51.954;7.998;2023-02-15T06:28:42;10.77;;;6.83;;
15110;SDS011;7656;51.954;7.998;2023-02-15T06:33:03;8.20;;;5.93;;
15110;SDS011;7656;51.954;7.998;2023-02-15T06:37:24;13.30;;;6.47;;
15110;SDS011;7656;51.954;7.998;2023-02-15T06:41:45;11.93;;;6.27;;
15110;SDS011;7656;51.954;7.998;2023-02-15T06:46:06;12.73;;;6.93;;
15110;SDS011;7656;51.954;7.998;2023-02-15T06:50:27;10.13;;;6.20;;
15110;SDS011;7656;51.954;7.998;2023-02-15T06:54:48;8.47;;;6.43;;
15110;SDS011;7656;51.954;7.998;2023-02-15T06:59:09;11.87;;;6.07;;
15110;SDS011;7656;51.954;7.998;2023-02-15T07:03:31;11.03;;;6.40;;
15110;SDS011;7656;51.954;7.998;2023-02-15T07:07:53;10.37;;;6.17;;
15110;SDS011;7656;51.954;7.998;2023-02-15T07:12:14;9.63;;;6.50;;
15110;SDS011;7656;51.954;7.998;2023-02-15T07:16:53;10.00;;;6.23;;
15110;SDS011;7656;51.954;7.998;2023-02-15T07:21:15;9.73;;;6.10;;
15110;SDS011;7656;51.954;7.998;2023-02-15T07:25:36;10.97;;;6.60;;
15110;SDS011;7656;51.954;7.998;2023-02-15T07:29:57;11.13;;;6.77;;
15110;SDS011;7656;51.954;7.998;2023-02-15T07:34:18;10.57;;;6.97;;
15110;SDS011;7656;51.954;7.998;2023-02-15T07:38:40;9.77;;;6.60;;
15110;SDS011;7656;51.954;7.998;2023-02-15T07:43:02;10.73;;;6.83;;
15110;SDS011;7656;51.954;7.998;2023-02-15T07:47:23;15.40;;;7.47;;
15110;SDS011;7656;51.954;7.998;2023-02-15T07:51:46;10.17;;;7.37;;
15110;SDS011;7656;51.954;7.998;2023-02-15T07:56:11;10.07;;;7.53;;
15110;SDS011;7656;51.954;7.998;2023-02-15T08:00:34;11.77;;;7.67;;
15110;SDS011;7656;51.954;7.998;2023-02-15T08:05:15;10.20;;;7.70;;
15110;SDS011;7656;51.954;7.998;2023-02-15T08:09:38;8.70;;;6.37;;
15110;SDS011;7656;51.954;7.998;2023-02-15T08:18:29;9.07;;;7.07;;
15110;SDS011;7656;51.954;7.998;2023-02-15T08:22:50;11.07;;;7.60;;
15110;SDS011;7656;51.954;7.998;2023-02-15T08:27:11;9.57;;;7.13;;
15110;SDS011;7656;51.954;7.998;2023-02-15T08:31:32;7.47;;;6.73;;
15110;SDS011;7656;51.954;7.998;2023-02-15T08:35:54;8.50;;;7.20;;
15110;SDS011;7656;51.954;7.998;2023-02-15T08:40:15;8.77;;;7.20;;
15110;SDS011;7656;51.954;7.998;2023-02-15T08:44:37;7.78;;;6.72;;
15110;SDS011;7656;51.954;7.998;2023-02-15T08:48:58;10.13;;;7.05;;
15110;SDS011;7656;51.954;7.998;2023-02-15T08:53:19;10.43;;;6.95;;
15110;SDS011;7656;51.954;7.998;2023-02-15T08:57:41;9.68;;;7.97;;
15110;SDS011;7656;51.954;7.998;2023-02-15T09:02:05;9.40;;;6.50;;
15110;SDS011;7656;51.954;7.998;2023-02-15T09:06:27;18.40;;;7.82;;
15110;SDS011;7656;51.954;7.998;2023-02-15T09:10:49;7.88;;;6.85;;
15110;SDS011;7656;51.954;7.998;2023-02-15T09:15:10;8.63;;;6.57;;
15110;SDS011;7656;51.954;7.998;2023-02-15T09:19:31;8.75;;;7.78;;
15110;SDS011;7656;51.954;7.998;2023-02-15T09:23:56;8.55;;;7.30;;
15110;SDS011;7656;51.954;7.998;2023-02-15T09:28:20;10.38;;;7.65;;
15110;SDS011;7656;51.954;7.998;2023-02-15T09:32:41;8.48;;;7.22;;
15110;SDS011;7656;51.954;7.998;2023-02-15T09:37:02;10.55;;;7.30;;
15110;SDS011;7656;51.954;7.998;2023-02-15T10:06:17;11.15;;;7.47;;
15110;SDS011;7656;51.954;7.998;2023-02-15T10:20:41;10.57;;;7.70;;
15110;SDS011;7656;51.954;7.998;2023-02-15T10:34:54;10.27;;;8.67;;
15110;SDS011;7656;51.954;7.998;2023-02-15T10:48:53;11.87;;;8.50;;
15110;SDS011;7656;51.954;7.998;2023-02-15T10:54:01;11.07;;;8.13;;
15110;SDS011;7656;51.954;7.998;2023-02-15T10:58:47;12.43;;;8.93;;
15110;SDS011;7656;51.954;7.998;2023-02-15T11:08:32;13.30;;;8.50;;
15110;SDS011;7656;51.954;7.998;2023-02-15T11:12:58;15.30;;;9.77;;
15110;SDS011;7656;51.954;7.998;2023-02-15T11:17:36;13.97;;;9.83;;
15110;SDS011;7656;51.954;7.998;2023-02-15T11:22:10;14.33;;;9.17;;
15110;SDS011;7656;51.954;7.998;2023-02-15T11:26:34;11.30;;;8.37;;
15110;SDS011;7656;51.954;7.998;2023-02-15T11:31:02;15.97;;;9.10;;
15110;SDS011;7656;51.954;7.998;2023-02-15T11:36:00;13.53;;;8.90;;
15110;SDS011;7656;51.954;7.998;2023-02-15T11:45:21;13.20;;;9.47;;
15110;SDS011;7656;51.954;7.998;2023-02-15T11:49:50;14.30;;;10.07;;
15110;SDS011;7656;51.954;7.998;2023-02-15T11:54:11;13.87;;;9.20;;
15110;SDS011;7656;51.954;7.998;2023-02-15T11:58:35;14.77;;;8.40;;
15110;SDS011;7656;51.954;7.998;2023-02-15T12:03:22;15.60;;;9.37;;
15110;SDS011;7656;51.954;7.998;2023-02-15T12:08:18;14.43;;;10.17;;
15110;SDS011;7656;51.954;7.998;2023-02-15T12:12:41;15.73;;;9.80;;
15110;SDS011;7656;51.954;7.998;2023-02-15T12:17:02;12.67;;;8.60;;
15110;SDS011;7656;51.954;7.998;2023-02-15T12:21:28;13.97;;;9.63;;
15110;SDS011;7656;51.954;7.998;2023-02-15T12:26:00;13.67;;;9.83;;
15110;SDS011;7656;51.954;7.998;2023-02-15T12:30:30;14.33;;;9.80;;
15110;SDS011;7656;51.954;7.998;2023-02-15T12:34:56;14.87;;;9.60;;
15110;SDS011;7656;51.954;7.998;2023-02-15T12:39:32;16.30;;;10.27;;
15110;SDS011;7656;51.954;7.998;2023-02-15T12:44:07;16.63;;;9.73;;
15110;SDS011;7656;51.954;7.998;2023-02-15T12:48:47;17.97;;;10.60;;
15110;SDS011;7656;51.954;7.998;2023-02-15T12:53:34;17.10;;;11.63;;
15110;SDS011;7656;51.954;7.998;2023-02-15T13:02:46;17.03;;;10.37;;
15110;SDS011;7656;51.954;7.998;2023-02-15T13:07:13;17.00;;;10.60;;
15110;SDS011;7656;51.954;7.998;2023-02-15T13:11:41;17.07;;;9.93;;
15110;SDS011;7656;51.954;7.998;2023-02-15T13:16:05;16.17;;;10.10;;
15110;SDS011;7656;51.954;7.998;2023-02-15T13:20:32;17.57;;;10.30;;
15110;SDS011;7656;51.954;7.998;2023-02-15T13:24:57;19.10;;;10.83;;
15110;SDS011;7656;51.954;7.998;2023-02-15T13:29:25;16.60;;;10.40;;
15110;SDS011;7656;51.954;7.998;2023-02-15T13:33:51;19.57;;;11.90;;
15110;SDS011;7656;51.954;7.998;2023-02-15T13:43:17;19.63;;;11.50;;
15110;SDS011;7656;51.954;7.998;2023-02-15T13:47:55;19.97;;;11.20;;
15110;SDS011;7656;51.954;7.998;2023-02-15T13:53:23;17.37;;;10.77;;
15110;SDS011;7656;51.954;7.998;2023-02-15T14:02:42;18.43;;;11.17;;
15110;SDS011;7656;51.954;7.998;2023-02-15T14:12:28;16.77;;;9.80;;
15110;SDS011;7656;51.954;7.998;2023-02-15T14:17:24;15.40;;;9.70;;
15110;SDS011;7656;51.954;7.998;2023-02-15T14:22:09;17.53;;;10.53;;
15110;SDS011;7656;51.954;7.998;2023-02-15T14:31:23;19.33;;;11.40;;
15110;SDS011;7656;51.954;7.998;2023-02-15T14:35:52;18.37;;;10.53;;
15110;SDS011;7656;51.954;7.998;2023-02-15T14:40:21;17.87;;;10.57;;
15110;SDS011;7656;51.954;7.998;2023-02-15T14:45:27;19.27;;;10.70;;
15110;SDS011;7656;51.954;7.998;2023-02-15T14:49:52;18.23;;;10.17;;
15110;SDS011;7656;51.954;7.998;2023-02-15T14:58:37;17.27;;;10.20;;
15110;SDS011;7656;51.954;7.998;2023-02-15T15:02:58;17.37;;;10.60;;
15110;SDS011;7656;51.954;7.998;2023-02-15T15:07:21;16.93;;;10.80;;
15110;SDS011;7656;51.954;7.998;2023-02-15T15:11:45;17.17;;;10.03;;
15110;SDS011;7656;51.954;7.998;2023-02-15T15:21:08;18.67;;;9.97;;
15110;SDS011;7656;51.954;7.998;2023-02-15T15:30:52;16.27;;;10.80;;
15110;SDS011;7656;51.954;7.998;2023-02-15T15:34:59;21.80;;;11.67;;
15110;SDS011;7656;51.954;7.998;2023-02-15T15:49:16;18.30;;;10.77;;
15110;SDS011;7656;51.954;7.998;2023-02-15T15:53:42;18.73;;;10.43;;
15110;SDS011;7656;51.954;7.998;2023-02-15T15:58:08;18.67;;;9.70;;
15110;SDS011;7656;51.954;7.998;2023-02-15T16:02:35;17.97;;;9.77;;
15110;SDS011;7656;51.954;7.998;2023-02-15T16:07:20;18.00;;;10.57;;
15110;SDS011;7656;51.954;7.998;2023-02-15T16:11:47;19.47;;;9.90;;
15110;SDS011;7656;51.954;7.998;2023-02-15T16:16:11;15.73;;;9.57;;
15110;SDS011;7656;51.954;7.998;2023-02-15T16:20:35;21.17;;;10.27;;
15110;SDS011;7656;51.954;7.998;2023-02-15T16:29:44;17.60;;;10.57;;
15110;SDS011;7656;51.954;7.998;2023-02-15T16:34:08;20.63;;;10.90;;
15110;SDS011;7656;51.954;7.998;2023-02-15T16:43:06;26.27;;;15.10;;
15110;SDS011;7656;51.954;7.998;2023-02-15T16:47:36;18.20;;;10.50;;
15110;SDS011;7656;51.954;7.998;2023-02-15T16:52:03;16.20;;;9.60;;
15110;SDS011;7656;51.954;7.998;2023-02-15T16:56:27;19.80;;;10.37;;
15110;SDS011;7656;51.954;7.998;2023-02-15T17:00:50;17.20;;;9.93;;
15110;SDS011;7656;51.954;7.998;2023-02-15T17:05:18;15.87;;;9.70;;
15110;SDS011;7656;51.954;7.998;2023-02-15T17:09:51;18.10;;;10.97;;
15110;SDS011;7656;51.954;7.998;2023-02-15T17:14:20;20.07;;;10.50;;
15110;SDS011;7656;51.954;7.998;2023-02-15T17:18:51;16.03;;;10.07;;
15110;SDS011;7656;51.954;7.998;2023-02-15T17:23:20;18.73;;;10.10;;
15110;SDS011;7656;51.954;7.998;2023-02-15T17:28:05;18.90;;;10.50;;
15110;SDS011;7656;51.954;7.998;2023-02-15T17:32:38;19.77;;;9.70;;
15110;SDS011;7656;51.954;7.998;2023-02-15T17:37:26;22.80;;;11.07;;
15110;SDS011;7656;51.954;7.998;2023-02-15T17:41:56;20.27;;;10.63;;
15110;SDS011;7656;51.954;7.998;2023-02-15T17:46:17;19.67;;;10.30;;
15110;SDS011;7656;51.954;7.998;2023-02-15T17:50:42;22.00;;;11.20;;
15110;SDS011;7656;51.954;7.998;2023-02-15T17:55:07;22.80;;;11.47;;
15110;SDS011;7656;51.954;7.998;2023-02-15T17:59:54;21.53;;;10.63;;
15110;SDS011;7656;51.954;7.998;2023-02-15T18:04:35;21.97;;;12.80;;
15110;SDS011;7656;51.954;7.998;2023-02-15T18:09:16;19.97;;;10.87;;
15110;SDS011;7656;51.954;7.998;2023-02-15T18:13:57;22.33;;;11.10;;
15110;SDS011;7656;51.954;7.998;2023-02-15T18:18:20;26.57;;;12.13;;
15110;SDS011;7656;51.954;7.998;2023-02-15T18:22:43;21.93;;;12.03;;
15110;SDS011;7656;51.954;7.998;2023-02-15T18:27:05;20.00;;;11.30;;
15110;SDS011;7656;51.954;7.998;2023-02-15T18:31:26;22.83;;;12.70;;
15110;SDS011;7656;51.954;7.998;2023-02-15T18:35:47;22.43;;;11.63;;
15110;SDS011;7656;51.954;7.998;2023-02-15T18:40:16;20.67;;;10.87;;
15110;SDS011;7656;51.954;7.998;2023-02-15T18:44:41;19.97;;;11.53;;
15110;SDS011;7656;51.954;7.998;2023-02-15T18:49:02;23.90;;;12.87;;
15110;SDS011;7656;51.954;7.998;2023-02-15T18:53:23;21.77;;;11.27;;
15110;SDS011;7656;51.954;7.998;2023-02-15T18:57:44;25.80;;;11.83;;
15110;SDS011;7656;51.954;7.998;2023-02-15T19:02:15;24.03;;;11.97;;
15110;SDS011;7656;51.954;7.998;2023-02-15T19:06:39;20.20;;;11.87;;
15110;SDS011;7656;51.954;7.998;2023-02-15T19:11:09;16.20;;;10.00;;
15110;SDS011;7656;51.954;7.998;2023-02-15T19:15:35;17.27;;;10.53;;
15110;SDS011;7656;51.954;7.998;2023-02-15T19:19:58;22.20;;;10.80;;
15110;SDS011;7656;51.954;7.998;2023-02-15T19:24:20;20.53;;;11.30;;
15110;SDS011;7656;51.954;7.998;2023-02-15T19:28:48;18.47;;;9.97;;
15110;SDS011;7656;51.954;7.998;2023-02-15T19:33:19;22.60;;;12.87;;
15110;SDS011;7656;51.954;7.998;2023-02-15T19:37:40;21.53;;;11.47;;
15110;SDS011;7656;51.954;7.998;2023-02-15T19:42:04;18.00;;;10.20;;
15110;SDS011;7656;51.954;7.998;2023-02-15T19:46:25;19.87;;;10.17;;
15110;SDS011;7656;51.954;7.998;2023-02-15T19:50:47;19.13;;;11.43;;
15110;SDS011;7656;51.954;7.998;2023-02-15T19:55:22;20.77;;;11.43;;
15110;SDS011;7656;51.954;7.998;2023-02-15T19:59:50;18.90;;;10.87;;
15110;SDS011;7656;51.954;7.998;2023-02-15T20:04:11;14.93;;;10.57;;
15110;SDS011;7656;51.954;7.998;2023-02-15T20:08:32;19.87;;;11.37;;
15110;SDS011;7656;51.954;7.998;2023-02-15T20:12:53;19.63;;;10.50;;
15110;SDS011;7656;51.954;7.998;2023-02-15T20:17:14;18.70;;;10.27;;
15110;SDS011;7656;51.954;7.998;2023-02-15T20:21:35;19.93;;;10.30;;
15110;SDS011;7656;51.954;7.998;2023-02-15T20:25:58;22.93;;;11.17;;
15110;SDS011;7656;51.954;7.998;2023-02-15T20:30:22;21.43;;;12.10;;
15110;SDS011;7656;51.954;7.998;2023-02-15T20:34:46;18.30;;;12.10;;
15110;SDS011;7656;51.954;7.998;2023-02-15T20:39:11;24.60;;;11.93;;
15110;SDS011;7656;51.954;7.998;2023-02-15T20:43:37;19.13;;;11.43;;
15110;SDS011;7656;51.954;7.998;2023-02-15T20:47:59;19.87;;;11.27;;
15110;SDS011;7656;51.954;7.998;2023-02-15T20:52:21;23.73;;;11.67;;
15110;SDS011;7656;51.954;7.998;2023-02-15T20:56:42;18.37;;;9.90;;
15110;SDS011;7656;51.954;7.998;2023-02-15T21:01:04;20.67;;;10.57;;
15110;SDS011;7656;51.954;7.998;2023-02-15T21:05:30;18.30;;;11.03;;
15110;SDS011;7656;51.954;7.998;2023-02-15T21:09:52;17.40;;;10.27;;
15110;SDS011;7656;51.954;7.998;2023-02-15T21:14:18;17.13;;;10.00;;
15110;SDS011;7656;51.954;7.998;2023-02-15T21:18:42;17.87;;;10.33;;
15110;SDS011;7656;51.954;7.998;2023-02-15T21:23:03;18.97;;;11.77;;
15110;SDS011;7656;51.954;7.998;2023-02-15T21:27:26;21.27;;;11.37;;
15110;SDS011;7656;51.954;7.998;2023-02-15T21:31:46;19.50;;;11.77;;
15110;SDS011;7656;51.954;7.998;2023-02-15T21:36:12;19.27;;;12.03;;
15110;SDS011;7656;51.954;7.998;2023-02-15T21:40:41;19.47;;;11.53;;
15110;SDS011;7656;51.954;7.998;2023-02-15T21:45:11;17.30;;;11.03;;
15110;SDS011;7656;51.954;7.998;2023-02-15T21:49:55;19.93;;;11.47;;
15110;SDS011;7656;51.954;7.998;2023-02-15T21:54:17;19.53;;;11.37;;
15110;SDS011;7656;51.954;7.998;2023-02-15T21:58:39;18.90;;;11.17;;
15110;SDS011;7656;51.954;7.998;2023-02-15T22:03:00;19.30;;;11.30;;
15110;SDS011;7656;51.954;7.998;2023-02-15T22:07:22;18.67;;;11.07;;
15110;SDS011;7656;51.954;7.998;2023-02-15T22:11:43;18.27;;;11.37;;
15110;SDS011;7656;51.954;7.998;2023-02-15T22:16:04;17.67;;;10.47;;
15110;SDS011;7656;51.954;7.998;2023-02-15T22:20:26;19.97;;;10.73;;
15110;SDS011;7656;51.954;7.998;2023-02-15T22:24:47;18.67;;;10.50;;
15110;SDS011;7656;51.954;7.998;2023-02-15T22:29:12;16.37;;;10.83;;
15110;SDS011;7656;51.954;7.998;2023-02-15T22:33:37;17.67;;;10.80;;
15110;SDS011;7656;51.954;7.998;2023-02-15T22:37:58;19.97;;;10.53;;
15110;SDS011;7656;51.954;7.998;2023-02-15T22:42:24;19.20;;;11.10;;
15110;SDS011;7656;51.954;7.998;2023-02-15T22:46:46;16.70;;;10.17;;
15110;SDS011;7656;51.954;7.998;2023-02-15T22:51:11;16.83;;;10.43;;
15110;SDS011;7656;51.954;7.998;2023-02-15T22:55:37;16.47;;;10.40;;
15110;SDS011;7656;51.954;7.998;2023-02-15T22:59:59;16.93;;;10.50;;
15110;SDS011;7656;51.954;7.998;2023-02-15T23:04:21;19.87;;;10.27;;
15110;SDS011;7656;51.954;7.998;2023-02-15T23:08:48;21.30;;;10.80;;
15110;SDS011;7656;51.954;7.998;2023-02-15T23:13:15;14.20;;;9.43;;
15110;SDS011;7656;51.954;7.998;2023-02-15T23:17:44;18.73;;;10.43;;
15110;SDS011;7656;51.954;7.998;2023-02-15T23:22:08;19.20;;;10.23;;
15110;SDS011;7656;51.954;7.998;2023-02-15T23:26:36;18.47;;;11.00;;
15110;SDS011;7656;51.954;7.998;2023-02-15T23:30:57;19.90;;;10.47;;
15110;SDS011;7656;51.954;7.998;2023-02-15T23:35:19;16.10;;;10.47;;
15110;SDS011;7656;51.954;7.998;2023-02-15T23:39:40;16.53;;;10.07;;
15110;SDS011;7656;51.954;7.998;2023-02-15T23:44:19;18.10;;;10.23;;
15110;SDS011;7656;51.954;7.998;2023-02-15T23:48:41;17.97;;;11.00;;
15110;SDS011;7656;51.954;7.998;2023-02-15T23:53:02;19.87;;;10.77;;
15110;SDS011;7656;51.954;7.998;2023-02-15T23:57:23;22.07;;;11.63;;
